createdAt,value
2018-06-08T00:02:33.737Z,29.80
2018-06-08T00:06:27.763Z,31.05
2018-06-08T00:10:21.746Z,30.90
2018-06-08T00:14:15.759Z,30.25
2018-06-08T00:18:10.019Z,32.15
2018-06-08T00:22:05.372Z,32.48
2018-06-08T00:25:59.472Z,32.97
2018-06-08T00:29:53.977Z,34.70
2018-06-08T00:33:48.012Z,34.87
2018-06-08T00:37:42.035Z,39.08
2018-06-08T00:41:35.779Z,39.18
2018-06-08T00:45:32.174Z,40.67
2018-06-08T00:49:26.191Z,42.73
2018-06-08T00:53:20.171Z,44.85
2018-06-08T00:57:14.227Z,44.37
2018-06-08T01:01:08.290Z,46.90
2018-06-08T01:05:02.372Z,42.33
2018-06-08T01:08:56.372Z,44.25
2018-06-08T01:12:50.111Z,43.55
2018-06-08T01:16:43.988Z,42.05
2018-06-08T01:20:38.055Z,41.88
2018-06-08T01:24:34.079Z,43.03
2018-06-08T01:28:28.203Z,43.63
2018-06-08T01:32:22.181Z,41.93
2018-06-08T01:36:16.124Z,42.77
2018-06-08T01:40:10.187Z,42.95
2018-06-08T01:44:05.104Z,42.67
2018-06-08T01:47:59.019Z,43.52
2018-06-08T01:51:53.038Z,43.37
2018-06-08T01:55:48.631Z,43.83
2018-06-08T01:59:43.488Z,45.37
2018-06-08T02:03:37.483Z,43.92
2018-06-08T02:07:31.539Z,44.95
2018-06-08T02:11:25.608Z,46.05
2018-06-08T02:15:19.672Z,46.37
2018-06-08T02:19:13.188Z,47.78
2018-06-08T02:23:07.294Z,47.53
2018-06-08T02:27:01.375Z,47.08
2018-06-08T02:30:55.389Z,47.70
2018-06-08T02:34:49.511Z,46.85
2018-06-08T02:38:44.058Z,48.40
2018-06-08T02:42:38.060Z,50.05
2018-06-08T02:46:32.137Z,46.23
2018-06-08T02:50:26.155Z,48.80
2018-06-08T02:54:20.310Z,50.33
2018-06-08T02:58:14.334Z,50.20
2018-06-08T03:02:10.713Z,51.92
2018-06-08T03:06:07.113Z,52.67
2018-06-08T03:10:01.232Z,50.92
2018-06-08T03:13:55.285Z,53.53
2018-06-08T03:17:49.876Z,54.90
2018-06-08T03:21:44.287Z,55.80
2018-06-08T03:25:38.299Z,57.00
2018-06-08T03:29:32.286Z,56.85
2018-06-08T03:33:25.997Z,57.70
2018-06-08T03:37:19.822Z,56.98
2018-06-08T03:41:13.839Z,56.67
2018-06-08T03:45:09.365Z,57.53
2018-06-08T03:49:03.367Z,56.73
2018-06-08T03:52:57.400Z,50.63
2018-06-08T03:56:52.391Z,53.50
2018-06-08T04:00:46.403Z,56.28
2018-06-08T04:04:40.886Z,55.40
2018-06-08T04:08:34.903Z,56.90
2018-06-08T04:12:28.902Z,51.53
2018-06-08T04:16:23.023Z,54.90
2018-06-08T04:20:17.172Z,54.73
2018-06-08T04:24:11.290Z,53.30
2018-06-08T04:37:50.965Z,53.43
2018-06-08T05:04:31.531Z,56.20
2018-06-08T05:33:22.753Z,30.40
2018-06-08T05:37:16.810Z,28.05
2018-06-08T05:41:10.946Z,22.90
2018-06-08T05:45:05.207Z,25.50
2018-06-08T05:48:59.409Z,26.97
2018-06-08T05:52:53.372Z,24.20
2018-06-08T05:56:47.372Z,24.45
2018-06-08T06:00:41.490Z,25.35
2018-06-08T06:04:35.691Z,24.98
2018-06-08T06:08:29.727Z,21.70
2018-06-08T06:12:23.735Z,24.77
2018-06-08T06:16:17.734Z,22.77
2018-06-08T06:20:12.432Z,23.95
2018-06-08T06:24:06.427Z,23.18
2018-06-08T06:28:00.595Z,24.20
2018-06-08T06:31:54.720Z,24.43
2018-06-08T06:35:48.721Z,26.85
2018-06-08T06:39:42.903Z,28.00
2018-06-08T06:43:36.871Z,28.32
2018-06-08T06:47:31.071Z,28.75
2018-06-08T06:51:25.210Z,29.72
2018-06-08T06:55:19.551Z,30.30
2018-06-08T06:59:13.674Z,29.50
2018-06-08T07:03:07.747Z,27.87
2018-06-08T07:07:01.800Z,28.92
2018-06-08T07:10:55.890Z,30.00
2018-06-08T07:14:49.969Z,28.62
2018-06-08T07:18:44.255Z,28.57
2018-06-08T07:22:38.307Z,28.00
2018-06-08T07:26:32.629Z,27.95
2018-06-08T07:30:26.900Z,26.65
2018-06-08T07:34:26.302Z,27.07
2018-06-08T07:38:20.533Z,23.22
2018-06-08T07:42:14.613Z,25.12
2018-06-08T07:46:08.769Z,26.23
2018-06-08T07:50:02.990Z,23.30
2018-06-08T07:53:57.038Z,22.62
2018-06-08T07:57:51.193Z,23.67
2018-06-08T08:01:45.289Z,22.67
2018-06-08T08:05:39.309Z,22.33
2018-06-08T08:09:33.382Z,22.30
2018-06-08T08:13:27.523Z,22.15
2018-06-08T08:17:22.195Z,21.60
2018-06-08T08:21:19.818Z,21.25
2018-06-08T08:25:14.254Z,20.50
2018-06-08T08:29:08.506Z,19.60
2018-06-08T08:33:02.599Z,19.48
2018-06-08T08:36:57.566Z,20.00
2018-06-08T08:40:51.610Z,20.43
2018-06-08T08:44:46.046Z,19.13
2018-06-08T08:48:40.433Z,18.87
2018-06-08T08:52:34.504Z,19.15
2018-06-08T08:56:28.726Z,17.90
2018-06-08T09:00:23.123Z,19.98
2018-06-08T09:04:17.263Z,20.45
2018-06-08T09:08:11.370Z,21.10
2018-06-08T09:12:06.946Z,20.68
2018-06-08T09:16:00.930Z,19.15
2018-06-08T09:19:55.203Z,17.57
2018-06-08T09:23:49.252Z,17.07
2018-06-08T09:27:43.508Z,18.57
2018-06-08T09:31:37.621Z,18.87
2018-06-08T09:35:32.143Z,16.87
2018-06-08T09:39:26.207Z,18.00
2018-06-08T09:43:20.341Z,18.23
2018-06-08T09:47:14.514Z,19.82
2018-06-08T09:51:08.581Z,26.17
2018-06-08T09:55:02.639Z,25.80
2018-06-08T09:58:58.596Z,24.20
2018-06-08T10:02:52.731Z,22.25
2018-06-08T10:06:46.860Z,22.95
2018-06-08T10:10:41.208Z,23.50
2018-06-08T10:14:35.368Z,22.07
2018-06-08T10:18:29.431Z,22.55
2018-06-08T10:22:24.550Z,22.55
2018-06-08T10:26:18.649Z,23.30
2018-06-08T10:30:12.755Z,22.48
2018-06-08T10:34:07.727Z,23.20
2018-06-08T10:38:01.774Z,24.60
2018-06-08T10:41:56.026Z,25.62
2018-06-08T10:45:50.292Z,26.48
2018-06-08T10:49:44.738Z,25.57
2018-06-08T10:53:39.384Z,30.83
2018-06-08T10:57:33.977Z,35.23
2018-06-08T11:01:28.065Z,39.55
2018-06-08T11:05:22.667Z,40.25
2018-06-08T11:09:16.759Z,45.38
2018-06-08T11:13:11.111Z,43.42
2018-06-08T11:17:05.809Z,51.42
2018-06-08T11:21:00.317Z,42.78
2018-06-08T11:24:54.403Z,48.70
2018-06-08T11:28:48.529Z,49.48
2018-06-08T11:32:42.544Z,47.67
2018-06-08T11:36:36.927Z,35.25
2018-06-08T11:40:31.168Z,37.57
2018-06-08T11:44:25.431Z,35.45
2018-06-08T11:48:19.515Z,31.85
2018-06-08T11:52:13.669Z,33.10
2018-06-08T11:56:07.690Z,34.45
2018-06-08T12:00:02.152Z,30.97
2018-06-08T12:03:58.204Z,33.25
2018-06-08T12:07:54.285Z,33.53
2018-06-08T12:11:48.473Z,34.58
2018-06-08T12:15:43.559Z,35.30
2018-06-08T12:19:38.051Z,34.90
2018-06-08T12:23:33.014Z,35.70
2018-06-08T12:27:27.519Z,34.10
2018-06-08T12:31:22.655Z,34.15
2018-06-08T12:35:16.665Z,32.78
2018-06-08T12:39:16.616Z,34.30
2018-06-08T12:43:10.823Z,42.25
2018-06-08T12:47:05.686Z,44.25
2018-06-08T12:50:59.952Z,42.23
2018-06-08T12:54:54.814Z,38.05
2018-06-08T12:58:48.836Z,41.25
2018-06-08T13:02:43.488Z,43.75
2018-06-08T13:06:37.483Z,38.38
2018-06-08T13:10:31.583Z,36.27
2018-06-08T13:14:28.595Z,34.30
2018-06-08T13:18:22.274Z,33.83
2018-06-08T13:22:16.568Z,33.38
2018-06-08T13:26:10.829Z,30.12
2018-06-08T13:30:04.943Z,35.05
2018-06-08T13:33:59.134Z,32.60
2018-06-08T13:37:53.214Z,34.07
2018-06-08T13:41:47.428Z,38.23
2018-06-08T13:45:41.986Z,39.23
2018-06-08T13:49:35.992Z,36.67
2018-06-08T13:53:29.994Z,34.88
2018-06-08T13:57:23.560Z,34.25
2018-06-08T14:01:18.039Z,32.53
2018-06-08T14:05:12.171Z,35.92
2018-06-08T14:09:06.796Z,32.70
2018-06-08T14:13:01.402Z,34.40
2018-06-08T14:16:55.480Z,34.20
2018-06-08T14:20:48.925Z,35.27
2018-06-08T14:24:43.137Z,29.83
2018-06-08T14:28:37.223Z,33.40
2018-06-08T14:32:31.680Z,33.83
2018-06-08T14:36:29.580Z,33.23
2018-06-08T14:40:23.616Z,28.87
2018-06-08T14:44:17.780Z,37.88
2018-06-08T14:48:11.790Z,35.37
2018-06-08T14:52:05.958Z,33.92
2018-06-08T14:56:00.116Z,31.60
2018-06-08T14:59:54.262Z,37.63
2018-06-08T15:03:48.428Z,34.90
2018-06-08T15:07:42.465Z,29.60
2018-06-08T15:11:36.558Z,34.45
2018-06-08T15:15:30.690Z,37.75
2018-06-08T15:19:24.135Z,31.35
2018-06-08T15:23:18.471Z,32.03
2018-06-08T15:27:13.159Z,34.70
2018-06-08T15:31:07.379Z,35.30
2018-06-08T15:35:02.355Z,32.40
2018-06-08T15:38:58.112Z,30.37
2018-06-08T15:42:52.126Z,29.70
2018-06-08T15:46:46.254Z,28.90
2018-06-08T15:50:40.213Z,26.70
2018-06-08T15:54:34.411Z,26.82
2018-06-08T15:58:29.063Z,29.30
2018-06-08T16:02:23.912Z,29.25
2018-06-08T16:06:18.122Z,34.23
2018-06-08T16:10:12.247Z,34.53
2018-06-08T16:14:06.234Z,28.67
2018-06-08T16:18:00.415Z,31.65
2018-06-08T16:21:54.466Z,30.88
2018-06-08T16:25:49.130Z,30.52
2018-06-08T16:29:43.193Z,32.10
2018-06-08T16:33:38.616Z,29.65
2018-06-08T16:37:32.596Z,31.52
2018-06-08T16:41:26.900Z,31.68
2018-06-08T16:45:21.275Z,33.85
2018-06-08T16:49:15.316Z,30.82
2018-06-08T16:53:09.290Z,29.75
2018-06-08T16:57:03.519Z,29.95
2018-06-08T17:00:57.451Z,29.57
2018-06-08T17:04:51.689Z,30.68
2018-06-08T17:08:45.813Z,31.87
2018-06-08T17:12:39.904Z,32.03
2018-06-08T17:16:34.130Z,31.07
2018-06-08T17:20:27.634Z,28.47
2018-06-08T17:24:21.686Z,31.05
2018-06-08T17:28:15.917Z,31.55
2018-06-08T17:32:10.988Z,27.52
2018-06-08T17:36:05.104Z,33.38
2018-06-08T17:39:59.245Z,33.33
2018-06-08T17:43:53.623Z,34.92
2018-06-08T17:47:47.972Z,34.20
2018-06-08T17:51:42.063Z,31.95
2018-06-08T17:55:36.627Z,35.08
2018-06-08T17:59:30.667Z,33.98
2018-06-08T18:03:25.202Z,33.10
2018-06-08T18:07:19.220Z,33.02
2018-06-08T18:11:13.215Z,30.32
2018-06-08T18:15:07.420Z,32.10
2018-06-08T18:19:00.932Z,30.12
2018-06-08T18:22:55.551Z,31.05
2018-06-08T18:26:49.794Z,32.67
2018-06-08T18:30:43.756Z,32.10
2018-06-08T18:34:38.004Z,31.17
2018-06-08T18:38:32.696Z,34.67
2018-06-08T18:42:26.781Z,35.65
2018-06-08T18:46:20.791Z,32.55
2018-06-08T18:50:15.003Z,33.97
2018-06-08T18:54:10.461Z,32.98
2018-06-08T18:58:04.640Z,34.83
2018-06-08T19:01:58.836Z,33.80
2018-06-08T19:05:53.016Z,33.15
2018-06-08T19:09:49.257Z,34.43
2018-06-08T19:13:43.439Z,34.27
2018-06-08T19:17:38.193Z,34.50
2018-06-08T19:21:32.439Z,34.13
2018-06-08T19:25:26.557Z,34.05
2018-06-08T19:29:20.733Z,35.30
2018-06-08T19:33:15.953Z,35.03
2018-06-08T19:37:11.225Z,33.48
2018-06-08T19:41:05.206Z,35.63
2018-06-08T19:44:59.206Z,34.03
2018-06-08T19:48:53.231Z,33.53
2018-06-08T19:52:47.585Z,32.28
2018-06-08T19:56:41.519Z,35.03
2018-06-08T20:00:35.777Z,34.97
2018-06-08T20:04:30.183Z,34.50
2018-06-08T20:08:24.586Z,34.30
2018-06-08T20:12:18.647Z,34.67
2018-06-08T20:16:14.166Z,35.52
2018-06-08T20:20:08.988Z,35.30
2018-06-08T20:24:02.999Z,35.10
2018-06-08T20:27:56.975Z,33.45
2018-06-08T20:31:51.233Z,36.20
2018-06-08T20:35:46.355Z,36.20
2018-06-08T20:39:41.388Z,36.50
2018-06-08T20:43:35.706Z,37.83
2018-06-08T20:47:30.792Z,37.73
2018-06-08T20:51:24.811Z,37.73
2018-06-08T20:55:19.318Z,38.70
2018-06-08T20:59:13.562Z,36.20
2018-06-08T21:03:08.151Z,38.33
2018-06-08T21:07:02.261Z,38.17
2018-06-08T21:10:56.324Z,38.83
2018-06-08T21:14:50.391Z,39.30
2018-06-08T21:18:43.849Z,39.20
2018-06-08T21:22:38.014Z,36.58
2018-06-08T21:26:32.066Z,40.85
2018-06-08T21:30:26.140Z,37.40
2018-06-08T21:34:20.276Z,38.35
2018-06-08T21:38:14.289Z,38.42
2018-06-08T21:42:08.284Z,39.10
2018-06-08T21:46:02.373Z,40.40
2018-06-08T21:49:56.387Z,38.83
2018-06-08T21:53:51.276Z,39.17
2018-06-08T21:57:46.535Z,36.77
2018-06-08T22:01:40.640Z,40.55
2018-06-08T22:05:35.414Z,41.25
2018-06-08T22:09:30.161Z,42.30
2018-06-08T22:13:27.869Z,39.48
2018-06-08T22:17:23.592Z,41.60
2018-06-08T22:21:18.441Z,42.48
2018-06-08T22:25:12.491Z,42.75
2018-06-08T22:29:06.572Z,42.13
2018-06-08T22:33:01.054Z,42.85
2018-06-08T22:36:55.098Z,43.87
2018-06-08T22:40:49.342Z,44.03
2018-06-08T22:44:43.219Z,47.27
2018-06-08T22:48:37.056Z,46.03
2018-06-08T22:52:30.994Z,45.23
2018-06-08T22:56:25.370Z,46.57
2018-06-08T23:00:21.097Z,45.87
2018-06-08T23:04:15.106Z,47.03
2018-06-08T23:08:09.160Z,47.58
2018-06-08T23:12:03.223Z,48.20
2018-06-08T23:15:57.628Z,50.75
2018-06-08T23:19:51.681Z,47.55
2018-06-08T23:23:47.353Z,50.67
2018-06-08T23:27:41.324Z,47.98
2018-06-08T23:31:35.407Z,44.87
2018-06-08T23:35:29.444Z,48.97
2018-06-08T23:39:23.580Z,45.15
2018-06-08T23:43:18.426Z,46.00
2018-06-08T23:47:12.478Z,49.58
2018-06-08T23:51:06.673Z,49.23
2018-06-08T23:55:00.719Z,47.67
2018-06-08T23:58:55.198Z,50.10
